sensor_id;sensor_type;location;lat;lon;timestamp;P1;durP1;ratioP1;P2;durP2;ratioP2
17890;SDS011;9071;48.220;14.480;2022-08-11T00:04:33;7.77;;;5.10;;
17890;SDS011;9071;48.220;14.480;2022-08-11T00:09:37;6.70;;;5.40;;
17890;SDS011;9071;48.220;14.480;2022-08-11T00:14:41;7.23;;;5.63;;
17890;SDS011;9071;48.220;14.480;2022-08-11T00:19:44;8.00;;;5.03;;
17890;SDS011;9071;48.220;14.480;2022-08-11T00:24:50;8.17;;;5.20;;
17890;SDS011;9071;48.220;14.480;2022-08-11T00:29:52;9.77;;;5.73;;
17890;SDS011;9071;48.220;14.480;2022-08-11T00:34:55;9.47;;;6.67;;
17890;SDS011;9071;48.220;14.480;2022-08-11T00:40:00;6.23;;;5.67;;
17890;SDS011;9071;48.220;14.480;2022-08-11T00:45:08;9.50;;;5.90;;
17890;SDS011;9071;48.220;14.480;2022-08-11T00:50:16;7.80;;;6.20;;
17890;SDS011;9071;48.220;14.480;2022-08-11T00:55:35;10.33;;;6.20;;
17890;SDS011;9071;48.220;14.480;2022-08-11T01:01:06;11.30;;;6.30;;
17890;SDS011;9071;48.220;14.480;2022-08-11T01:06:18;9.80;;;6.53;;
17890;SDS011;9071;48.220;14.480;2022-08-11T01:11:49;10.70;;;7.00;;
17890;SDS011;9071;48.220;14.480;2022-08-11T01:17:27;7.50;;;6.70;;
17890;SDS011;9071;48.220;14.480;2022-08-11T01:23:02;7.40;;;6.63;;
17890;SDS011;9071;48.220;14.480;2022-08-11T01:28:47;8.43;;;6.40;;
17890;SDS011;9071;48.220;14.480;2022-08-11T01:39:55;6.87;;;6.13;;
17890;SDS011;9071;48.220;14.480;2022-08-11T01:45:20;8.50;;;6.47;;
17890;SDS011;9071;48.220;14.480;2022-08-11T01:56:08;8.90;;;6.63;;
17890;SDS011;9071;48.220;14.480;2022-08-11T02:01:24;9.07;;;6.90;;
17890;SDS011;9071;48.220;14.480;2022-08-11T02:06:36;7.93;;;6.47;;
17890;SDS011;9071;48.220;14.480;2022-08-11T02:11:58;7.47;;;6.67;;
17890;SDS011;9071;48.220;14.480;2022-08-11T02:17:12;7.87;;;6.10;;
17890;SDS011;9071;48.220;14.480;2022-08-11T02:22:22;11.53;;;5.80;;
17890;SDS011;9071;48.220;14.480;2022-08-11T02:27:51;8.27;;;6.17;;
17890;SDS011;9071;48.220;14.480;2022-08-11T02:32:57;7.57;;;6.70;;
17890;SDS011;9071;48.220;14.480;2022-08-11T02:38:27;11.33;;;7.73;;
17890;SDS011;9071;48.220;14.480;2022-08-11T02:43:39;9.87;;;7.37;;
17890;SDS011;9071;48.220;14.480;2022-08-11T02:48:52;9.80;;;7.20;;
17890;SDS011;9071;48.220;14.480;2022-08-11T02:54:20;11.17;;;6.57;;
17890;SDS011;9071;48.220;14.480;2022-08-11T02:59:36;8.87;;;7.90;;
17890;SDS011;9071;48.220;14.480;2022-08-11T03:04:59;8.20;;;7.17;;
17890;SDS011;9071;48.220;14.480;2022-08-11T03:10:09;10.77;;;7.83;;
17890;SDS011;9071;48.220;14.480;2022-08-11T03:15:18;11.23;;;8.30;;
17890;SDS011;9071;48.220;14.480;2022-08-11T03:20:43;8.97;;;7.53;;
17890;SDS011;9071;48.220;14.480;2022-08-11T03:25:54;10.67;;;7.70;;
17890;SDS011;9071;48.220;14.480;2022-08-11T03:31:14;9.67;;;7.90;;
17890;SDS011;9071;48.220;14.480;2022-08-11T03:36:32;11.53;;;7.60;;
17890;SDS011;9071;48.220;14.480;2022-08-11T03:41:56;9.67;;;7.40;;
17890;SDS011;9071;48.220;14.480;2022-08-11T03:52:47;14.03;;;10.60;;
17890;SDS011;9071;48.220;14.480;2022-08-11T04:03:58;12.17;;;9.27;;
17890;SDS011;9071;48.220;14.480;2022-08-11T04:15:22;12.00;;;10.13;;
17890;SDS011;9071;48.220;14.480;2022-08-11T04:20:59;14.23;;;9.77;;
17890;SDS011;9071;48.220;14.480;2022-08-11T04:32:14;12.33;;;8.73;;
17890;SDS011;9071;48.220;14.480;2022-08-11T04:37:46;14.90;;;8.27;;
17890;SDS011;9071;48.220;14.480;2022-08-11T04:49:09;8.80;;;6.73;;
17890;SDS011;9071;48.220;14.480;2022-08-11T04:54:57;11.37;;;7.03;;
17890;SDS011;9071;48.220;14.480;2022-08-11T05:00:35;11.13;;;6.90;;
17890;SDS011;9071;48.220;14.480;2022-08-11T05:06:18;8.47;;;5.83;;
17890;SDS011;9071;48.220;14.480;2022-08-11T05:11:52;8.40;;;5.90;;
17890;SDS011;9071;48.220;14.480;2022-08-11T05:17:08;9.10;;;5.47;;
17890;SDS011;9071;48.220;14.480;2022-08-11T05:22:32;7.10;;;5.17;;
17890;SDS011;9071;48.220;14.480;2022-08-11T05:27:54;8.60;;;5.77;;
17890;SDS011;9071;48.220;14.480;2022-08-11T05:33:22;9.30;;;5.23;;
17890;SDS011;9071;48.220;14.480;2022-08-11T05:38:50;11.23;;;5.18;;
17890;SDS011;9071;48.220;14.480;2022-08-11T05:44:17;7.18;;;4.43;;
17890;SDS011;9071;48.220;14.480;2022-08-11T05:49:38;5.78;;;4.50;;
17890;SDS011;9071;48.220;14.480;2022-08-11T05:55:00;11.73;;;4.53;;
17890;SDS011;9071;48.220;14.480;2022-08-11T06:00:22;6.03;;;4.20;;
17890;SDS011;9071;48.220;14.480;2022-08-11T06:05:29;6.57;;;4.22;;
17890;SDS011;9071;48.220;14.480;2022-08-11T06:10:34;6.10;;;3.92;;
17890;SDS011;9071;48.220;14.480;2022-08-11T06:15:44;7.88;;;4.00;;
17890;SDS011;9071;48.220;14.480;2022-08-11T06:20:51;5.53;;;3.53;;
17890;SDS011;9071;48.220;14.480;2022-08-11T06:25:55;5.97;;;3.90;;
17890;SDS011;9071;48.220;14.480;2022-08-11T06:31:02;5.80;;;4.00;;
17890;SDS011;9071;48.220;14.480;2022-08-11T06:36:14;5.75;;;3.72;;
17890;SDS011;9071;48.220;14.480;2022-08-11T06:41:25;5.88;;;3.80;;
17890;SDS011;9071;48.220;14.480;2022-08-11T06:46:33;7.40;;;3.30;;
17890;SDS011;9071;48.220;14.480;2022-08-11T06:51:37;8.50;;;3.78;;
17890;SDS011;9071;48.220;14.480;2022-08-11T06:56:40;9.25;;;4.00;;
17890;SDS011;9071;48.220;14.480;2022-08-11T07:02:04;4.75;;;3.40;;
17890;SDS011;9071;48.220;14.480;2022-08-11T07:07:17;4.38;;;3.20;;
17890;SDS011;9071;48.220;14.480;2022-08-11T07:12:59;5.72;;;3.03;;
17890;SDS011;9071;48.220;14.480;2022-08-11T07:18:21;9.00;;;3.40;;
17890;SDS011;9071;48.220;14.480;2022-08-11T07:23:43;4.60;;;2.88;;
17890;SDS011;9071;48.220;14.480;2022-08-11T07:29:03;8.30;;;3.33;;
17890;SDS011;9071;48.220;14.480;2022-08-11T07:34:14;4.85;;;3.40;;
17890;SDS011;9071;48.220;14.480;2022-08-11T07:39:22;6.53;;;3.00;;
17890;SDS011;9071;48.220;14.480;2022-08-11T07:44:27;7.38;;;3.30;;
17890;SDS011;9071;48.220;14.480;2022-08-11T07:49:31;9.48;;;3.28;;
17890;SDS011;9071;48.220;14.480;2022-08-11T07:54:53;4.28;;;2.72;;
17890;SDS011;9071;48.220;14.480;2022-08-11T07:59:58;4.25;;;2.90;;
17890;SDS011;9071;48.220;14.480;2022-08-11T08:05:19;4.30;;;2.85;;
17890;SDS011;9071;48.220;14.480;2022-08-11T08:10:39;4.43;;;2.70;;
17890;SDS011;9071;48.220;14.480;2022-08-11T08:15:59;7.57;;;3.00;;
17890;SDS011;9071;48.220;14.480;2022-08-11T08:21:20;3.13;;;2.80;;
17890;SDS011;9071;48.220;14.480;2022-08-11T08:26:23;7.88;;;2.90;;
17890;SDS011;9071;48.220;14.480;2022-08-11T08:31:43;6.68;;;3.00;;
17890;SDS011;9071;48.220;14.480;2022-08-11T08:36:49;7.38;;;2.70;;
17890;SDS011;9071;48.220;14.480;2022-08-11T08:41:52;2.90;;;2.40;;
17890;SDS011;9071;48.220;14.480;2022-08-11T08:46:56;7.10;;;2.75;;
17890;SDS011;9071;48.220;14.480;2022-08-11T08:52:02;3.92;;;2.45;;
17890;SDS011;9071;48.220;14.480;2022-08-11T08:57:07;4.90;;;2.60;;
17890;SDS011;9071;48.220;14.480;2022-08-11T09:02:11;3.55;;;2.28;;
17890;SDS011;9071;48.220;14.480;2022-08-11T09:07:16;4.05;;;2.78;;
17890;SDS011;9071;48.220;14.480;2022-08-11T09:12:21;4.65;;;2.60;;
17890;SDS011;9071;48.220;14.480;2022-08-11T09:17:28;2.33;;;2.13;;
17890;SDS011;9071;48.220;14.480;2022-08-11T09:22:34;5.30;;;2.35;;
17890;SDS011;9071;48.220;14.480;2022-08-11T09:27:57;2.92;;;2.40;;
17890;SDS011;9071;48.220;14.480;2022-08-11T09:33:00;4.30;;;2.20;;
17890;SDS011;9071;48.220;14.480;2022-08-11T09:38:06;6.40;;;2.38;;
17890;SDS011;9071;48.220;14.480;2022-08-11T09:43:29;6.03;;;2.40;;
17890;SDS011;9071;48.220;14.480;2022-08-11T09:48:49;5.07;;;2.20;;
17890;SDS011;9071;48.220;14.480;2022-08-11T09:53:54;5.13;;;2.55;;
17890;SDS011;9071;48.220;14.480;2022-08-11T09:58:58;2.65;;;2.25;;
17890;SDS011;9071;48.220;14.480;2022-08-11T10:04:02;2.97;;;2.10;;
17890;SDS011;9071;48.220;14.480;2022-08-11T10:09:09;2.95;;;2.00;;
17890;SDS011;9071;48.220;14.480;2022-08-11T10:14:12;3.28;;;2.40;;
17890;SDS011;9071;48.220;14.480;2022-08-11T10:19:34;2.33;;;2.13;;
17890;SDS011;9071;48.220;14.480;2022-08-11T10:24:39;4.22;;;2.17;;
17890;SDS011;9071;48.220;14.480;2022-08-11T10:30:01;2.40;;;2.15;;
17890;SDS011;9071;48.220;14.480;2022-08-11T10:35:21;4.75;;;2.00;;
17890;SDS011;9071;48.220;14.480;2022-08-11T10:40:26;3.40;;;2.17;;
17890;SDS011;9071;48.220;14.480;2022-08-11T10:45:29;5.13;;;1.92;;
17890;SDS011;9071;48.220;14.480;2022-08-11T10:50:49;2.42;;;1.92;;
17890;SDS011;9071;48.220;14.480;2022-08-11T10:56:11;3.05;;;1.98;;
17890;SDS011;9071;48.220;14.480;2022-08-11T11:01:32;4.00;;;1.85;;
17890;SDS011;9071;48.220;14.480;2022-08-11T11:06:37;4.05;;;2.13;;
17890;SDS011;9071;48.220;14.480;2022-08-11T11:11:50;3.30;;;2.00;;
17890;SDS011;9071;48.220;14.480;2022-08-11T11:17:14;4.57;;;2.17;;
17890;SDS011;9071;48.220;14.480;2022-08-11T11:22:39;2.58;;;1.73;;
17890;SDS011;9071;48.220;14.480;2022-08-11T11:27:51;3.30;;;2.10;;
17890;SDS011;9071;48.220;14.480;2022-08-11T11:33:01;2.80;;;2.00;;
17890;SDS011;9071;48.220;14.480;2022-08-11T11:38:07;2.65;;;1.80;;
17890;SDS011;9071;48.220;14.480;2022-08-11T11:43:11;4.30;;;2.08;;
17890;SDS011;9071;48.220;14.480;2022-08-11T11:48:13;3.28;;;1.70;;
17890;SDS011;9071;48.220;14.480;2022-08-11T11:53:15;2.80;;;1.80;;
17890;SDS011;9071;48.220;14.480;2022-08-11T11:58:19;2.55;;;1.85;;
17890;SDS011;9071;48.220;14.480;2022-08-11T12:03:39;8.02;;;1.83;;
17890;SDS011;9071;48.220;14.480;2022-08-11T12:08:44;3.13;;;1.80;;
17890;SDS011;9071;48.220;14.480;2022-08-11T12:13:52;2.42;;;1.60;;
17890;SDS011;9071;48.220;14.480;2022-08-11T12:18:57;3.97;;;1.77;;
17890;SDS011;9071;48.220;14.480;2022-08-11T12:24:00;1.70;;;1.60;;
17890;SDS011;9071;48.220;14.480;2022-08-11T12:29:22;2.00;;;1.77;;
17890;SDS011;9071;48.220;14.480;2022-08-11T12:34:26;2.00;;;1.40;;
17890;SDS011;9071;48.220;14.480;2022-08-11T12:39:30;3.30;;;1.95;;
17890;SDS011;9071;48.220;14.480;2022-08-11T12:44:56;3.83;;;1.63;;
17890;SDS011;9071;48.220;14.480;2022-08-11T12:50:23;2.58;;;1.40;;
17890;SDS011;9071;48.220;14.480;2022-08-11T12:55:43;3.20;;;1.52;;
17890;SDS011;9071;48.220;14.480;2022-08-11T13:01:06;2.17;;;1.60;;
17890;SDS011;9071;48.220;14.480;2022-08-11T13:06:26;1.98;;;1.50;;
17890;SDS011;9071;48.220;14.480;2022-08-11T13:11:29;4.22;;;2.00;;
17890;SDS011;9071;48.220;14.480;2022-08-11T13:16:51;3.33;;;1.60;;
17890;SDS011;9071;48.220;14.480;2022-08-11T13:22:12;2.92;;;1.80;;
17890;SDS011;9071;48.220;14.480;2022-08-11T13:27:17;2.80;;;1.50;;
17890;SDS011;9071;48.220;14.480;2022-08-11T13:32:21;4.70;;;1.60;;
17890;SDS011;9071;48.220;14.480;2022-08-11T13:37:25;4.25;;;1.70;;
17890;SDS011;9071;48.220;14.480;2022-08-11T13:42:27;3.58;;;1.73;;
17890;SDS011;9071;48.220;14.480;2022-08-11T13:47:31;6.90;;;1.50;;
17890;SDS011;9071;48.220;14.480;2022-08-11T13:52:35;3.00;;;1.80;;
17890;SDS011;9071;48.220;14.480;2022-08-11T13:57:39;1.98;;;1.58;;
17890;SDS011;9071;48.220;14.480;2022-08-11T14:02:43;3.03;;;1.60;;
17890;SDS011;9071;48.220;14.480;2022-08-11T14:07:49;6.55;;;1.60;;
17890;SDS011;9071;48.220;14.480;2022-08-11T14:12:54;3.67;;;1.80;;
17890;SDS011;9071;48.220;14.480;2022-08-11T14:18:19;2.78;;;1.60;;
17890;SDS011;9071;48.220;14.480;2022-08-11T14:23:26;6.18;;;1.88;;
17890;SDS011;9071;48.220;14.480;2022-08-11T14:28:32;2.15;;;1.70;;
17890;SDS011;9071;48.220;14.480;2022-08-11T14:33:36;2.38;;;1.30;;
17890;SDS011;9071;48.220;14.480;2022-08-11T14:38:40;1.67;;;1.55;;
17890;SDS011;9071;48.220;14.480;2022-08-11T14:43:43;4.15;;;1.60;;
17890;SDS011;9071;48.220;14.480;2022-08-11T14:49:04;2.50;;;1.55;;
17890;SDS011;9071;48.220;14.480;2022-08-11T14:54:06;2.35;;;1.50;;
17890;SDS011;9071;48.220;14.480;2022-08-11T14:59:27;3.13;;;1.55;;
17890;SDS011;9071;48.220;14.480;2022-08-11T15:04:31;3.25;;;1.25;;
17890;SDS011;9071;48.220;14.480;2022-08-11T15:09:33;3.47;;;1.60;;
17890;SDS011;9071;48.220;14.480;2022-08-11T15:14:35;4.47;;;1.35;;
17890;SDS011;9071;48.220;14.480;2022-08-11T15:19:56;2.67;;;1.85;;
17890;SDS011;9071;48.220;14.480;2022-08-11T15:25:18;3.70;;;1.42;;
17890;SDS011;9071;48.220;14.480;2022-08-11T15:30:20;2.38;;;1.27;;
17890;SDS011;9071;48.220;14.480;2022-08-11T15:35:48;2.97;;;1.33;;
17890;SDS011;9071;48.220;14.480;2022-08-11T15:41:10;2.55;;;1.50;;
17890;SDS011;9071;48.220;14.480;2022-08-11T15:46:34;3.72;;;1.40;;
17890;SDS011;9071;48.220;14.480;2022-08-11T15:51:44;2.75;;;1.60;;
17890;SDS011;9071;48.220;14.480;2022-08-11T15:56:50;5.40;;;1.63;;
17890;SDS011;9071;48.220;14.480;2022-08-11T16:01:54;4.35;;;1.55;;
17890;SDS011;9071;48.220;14.480;2022-08-11T16:07:26;2.47;;;1.65;;
17890;SDS011;9071;48.220;14.480;2022-08-11T16:12:33;2.10;;;1.30;;
17890;SDS011;9071;48.220;14.480;2022-08-11T16:17:39;4.22;;;1.45;;
17890;SDS011;9071;48.220;14.480;2022-08-11T16:22:45;7.47;;;1.60;;
17890;SDS011;9071;48.220;14.480;2022-08-11T16:27:53;7.55;;;1.65;;
17890;SDS011;9071;48.220;14.480;2022-08-11T16:32:58;2.38;;;1.20;;
17890;SDS011;9071;48.220;14.480;2022-08-11T16:38:06;3.42;;;1.60;;
17890;SDS011;9071;48.220;14.480;2022-08-11T16:43:27;2.50;;;1.63;;
17890;SDS011;9071;48.220;14.480;2022-08-11T16:48:48;2.70;;;1.42;;
17890;SDS011;9071;48.220;14.480;2022-08-11T16:53:54;3.50;;;1.88;;
17890;SDS011;9071;48.220;14.480;2022-08-11T16:58:57;5.68;;;1.80;;
17890;SDS011;9071;48.220;14.480;2022-08-11T17:04:24;2.50;;;1.50;;
17890;SDS011;9071;48.220;14.480;2022-08-11T17:09:49;4.97;;;1.75;;
17890;SDS011;9071;48.220;14.480;2022-08-11T17:15:14;5.55;;;1.40;;
17890;SDS011;9071;48.220;14.480;2022-08-11T17:20:35;6.88;;;1.73;;
17890;SDS011;9071;48.220;14.480;2022-08-11T17:25:40;3.33;;;1.50;;
17890;SDS011;9071;48.220;14.480;2022-08-11T17:30:43;3.42;;;1.35;;
17890;SDS011;9071;48.220;14.480;2022-08-11T17:36:04;4.90;;;1.40;;
17890;SDS011;9071;48.220;14.480;2022-08-11T17:41:09;6.03;;;1.77;;
17890;SDS011;9071;48.220;14.480;2022-08-11T17:46:30;4.35;;;1.85;;
17890;SDS011;9071;48.220;14.480;2022-08-11T17:51:51;10.55;;;2.35;;
17890;SDS011;9071;48.220;14.480;2022-08-11T17:57:13;8.90;;;1.80;;
17890;SDS011;9071;48.220;14.480;2022-08-11T18:02:34;6.82;;;1.98;;
17890;SDS011;9071;48.220;14.480;2022-08-11T18:07:57;10.57;;;2.05;;
17890;SDS011;9071;48.220;14.480;2022-08-11T18:13:21;2.60;;;1.63;;
17890;SDS011;9071;48.220;14.480;2022-08-11T18:18:42;8.35;;;2.08;;
17890;SDS011;9071;48.220;14.480;2022-08-11T18:24:02;5.60;;;1.80;;
17890;SDS011;9071;48.220;14.480;2022-08-11T18:29:27;3.78;;;1.90;;
17890;SDS011;9071;48.220;14.480;2022-08-11T18:34:48;7.22;;;2.00;;
17890;SDS011;9071;48.220;14.480;2022-08-11T18:40:11;4.55;;;1.98;;
17890;SDS011;9071;48.220;14.480;2022-08-11T18:45:36;4.38;;;1.80;;
17890;SDS011;9071;48.220;14.480;2022-08-11T18:50:59;6.80;;;2.15;;
17890;SDS011;9071;48.220;14.480;2022-08-11T18:56:20;6.35;;;1.80;;
17890;SDS011;9071;48.220;14.480;2022-08-11T19:01:44;4.05;;;2.20;;
17890;SDS011;9071;48.220;14.480;2022-08-11T19:07:03;13.20;;;2.25;;
17890;SDS011;9071;48.220;14.480;2022-08-11T19:12:25;6.18;;;2.33;;
17890;SDS011;9071;48.220;14.480;2022-08-11T19:17:51;3.40;;;1.90;;
17890;SDS011;9071;48.220;14.480;2022-08-11T19:23:11;3.40;;;1.88;;
17890;SDS011;9071;48.220;14.480;2022-08-11T19:28:34;3.20;;;1.80;;
17890;SDS011;9071;48.220;14.480;2022-08-11T19:33:58;2.67;;;1.95;;
17890;SDS011;9071;48.220;14.480;2022-08-11T19:39:19;3.60;;;2.25;;
17890;SDS011;9071;48.220;14.480;2022-08-11T19:44:39;4.60;;;2.17;;
17890;SDS011;9071;48.220;14.480;2022-08-11T19:50:01;2.85;;;2.00;;
17890;SDS011;9071;48.220;14.480;2022-08-11T19:55:22;4.45;;;1.92;;
17890;SDS011;9071;48.220;14.480;2022-08-11T20:00:43;4.75;;;3.05;;
17890;SDS011;9071;48.220;14.480;2022-08-11T20:06:05;3.20;;;2.08;;
17890;SDS011;9071;48.220;14.480;2022-08-11T20:11:27;2.75;;;2.20;;
17890;SDS011;9071;48.220;14.480;2022-08-11T20:16:49;3.90;;;2.55;;
17890;SDS011;9071;48.220;14.480;2022-08-11T20:22:12;4.13;;;1.95;;
17890;SDS011;9071;48.220;14.480;2022-08-11T20:27:33;4.38;;;2.28;;
17890;SDS011;9071;48.220;14.480;2022-08-11T20:32:55;5.38;;;2.10;;
17890;SDS011;9071;48.220;14.480;2022-08-11T20:38:17;4.22;;;2.38;;
17890;SDS011;9071;48.220;14.480;2022-08-11T20:43:39;4.32;;;2.05;;
17890;SDS011;9071;48.220;14.480;2022-08-11T20:48:59;6.10;;;2.35;;
17890;SDS011;9071;48.220;14.480;2022-08-11T20:54:21;4.05;;;2.17;;
17890;SDS011;9071;48.220;14.480;2022-08-11T20:59:42;2.85;;;1.90;;
17890;SDS011;9071;48.220;14.480;2022-08-11T21:05:02;2.28;;;2.08;;
17890;SDS011;9071;48.220;14.480;2022-08-11T21:10:24;4.78;;;2.25;;
17890;SDS011;9071;48.220;14.480;2022-08-11T21:15:45;8.27;;;4.68;;
17890;SDS011;9071;48.220;14.480;2022-08-11T21:21:06;5.20;;;3.53;;
17890;SDS011;9071;48.220;14.480;2022-08-11T21:26:30;5.13;;;3.50;;
17890;SDS011;9071;48.220;14.480;2022-08-11T21:31:53;6.00;;;3.05;;
17890;SDS011;9071;48.220;14.480;2022-08-11T21:37:14;8.48;;;2.92;;
17890;SDS011;9071;48.220;14.480;2022-08-11T21:42:38;3.72;;;2.80;;
17890;SDS011;9071;48.220;14.480;2022-08-11T21:48:00;4.50;;;3.17;;
17890;SDS011;9071;48.220;14.480;2022-08-11T21:53:21;5.72;;;3.10;;
17890;SDS011;9071;48.220;14.480;2022-08-11T21:58:43;5.83;;;3.17;;
17890;SDS011;9071;48.220;14.480;2022-08-11T22:04:03;5.22;;;3.72;;
17890;SDS011;9071;48.220;14.480;2022-08-11T22:09:24;6.13;;;3.53;;
17890;SDS011;9071;48.220;14.480;2022-08-11T22:14:45;3.92;;;3.10;;
17890;SDS011;9071;48.220;14.480;2022-08-11T22:20:05;5.50;;;3.20;;
17890;SDS011;9071;48.220;14.480;2022-08-11T22:25:28;3.63;;;3.10;;
17890;SDS011;9071;48.220;14.480;2022-08-11T22:30:49;4.25;;;2.97;;
17890;SDS011;9071;48.220;14.480;2022-08-11T22:36:10;3.88;;;2.92;;
17890;SDS011;9071;48.220;14.480;2022-08-11T22:41:32;3.57;;;2.97;;
17890;SDS011;9071;48.220;14.480;2022-08-11T22:46:53;6.13;;;2.97;;
17890;SDS011;9071;48.220;14.480;2022-08-11T22:52:16;4.53;;;2.80;;
17890;SDS011;9071;48.220;14.480;2022-08-11T22:57:37;8.00;;;3.23;;
17890;SDS011;9071;48.220;14.480;2022-08-11T23:02:59;4.40;;;3.07;;
17890;SDS011;9071;48.220;14.480;2022-08-11T23:08:19;4.13;;;3.07;;
17890;SDS011;9071;48.220;14.480;2022-08-11T23:13:39;3.27;;;2.60;;
17890;SDS011;9071;48.220;14.480;2022-08-11T23:19:00;3.50;;;2.80;;
17890;SDS011;9071;48.220;14.480;2022-08-11T23:24:20;5.20;;;3.57;;
17890;SDS011;9071;48.220;14.480;2022-08-11T23:29:42;3.80;;;3.40;;
17890;SDS011;9071;48.220;14.480;2022-08-11T23:35:04;5.40;;;3.70;;
17890;SDS011;9071;48.220;14.480;2022-08-11T23:40:25;4.63;;;3.43;;
17890;SDS011;9071;48.220;14.480;2022-08-11T23:45:45;5.20;;;3.40;;
17890;SDS011;9071;48.220;14.480;2022-08-11T23:51:06;6.53;;;3.70;;
17890;SDS011;9071;48.220;14.480;2022-08-11T23:56:27;4.30;;;3.50;;
